McKinney's Hourly Summary for Thursday, March 16, 2017
Hour Temp
(f)
RH
(%)
Solar Rad.
(MJ/m2)
Rainfall
(in)
Wind
(mph)
3/16/2017 12:00 AM 46 76 0 0 0.46
3/16/2017 1:00 AM 47 77 0 0 0.63
3/16/2017 2:00 AM 45 82 0 0 0.04
3/16/2017 3:00 AM 48 75 0 0 5.92
3/16/2017 4:00 AM 49 75 0 0 6.55
3/16/2017 5:00 AM 51 79 0 0 7.68
3/16/2017 6:00 AM 52 83 0 0 8.26
3/16/2017 7:00 AM 54 87 0 0 6.64
3/16/2017 8:00 AM 54 91 0.01 0 5.78
3/16/2017 9:00 AM 55 97 0.08 0 6.82
3/16/2017 10:00 AM 55 97 0.22 0 7.97
3/16/2017 11:00 AM 56 88 0.5 0 8.61
3/16/2017 12:00 PM 58 84 0.75 0 9.95
3/16/2017 1:00 PM 60 79 1.09 0 9.58
3/16/2017 2:00 PM 62 76 1.3 0 10.07
3/16/2017 3:00 PM 63 76 0.78 0 9.3
3/16/2017 4:00 PM 65 73 0.67 0 9.59
3/16/2017 5:00 PM 66 72 0.71 0 9.87
3/16/2017 6:00 PM 68 69 0.5 0 10.16
3/16/2017 7:00 PM 69 69 0.26 0 10.38
3/16/2017 8:00 PM 68 70 0.03 0 7.28
3/16/2017 9:00 PM 67 73 0 0 5.25
3/16/2017 10:00 PM 65 76 0 0 7.06
3/16/2017 11:00 PM 65 79 0 0 9.04
Data Summary 57 79 6.90 0.00 7.20